sensor_id;sensor_type;location;lat;lon;timestamp;temperature;humidity
21522;DHT22;10922;45.572;10.002;2023-01-20T00:01:33;2.50;1.00
21522;DHT22;10922;45.572;10.002;2023-01-20T00:03:58;2.60;1.00
21522;DHT22;10922;45.572;10.002;2023-01-20T00:06:26;2.60;1.00
21522;DHT22;10922;45.572;10.002;2023-01-20T00:08:56;2.60;1.00
21522;DHT22;10922;45.572;10.002;2023-01-20T00:11:23;2.60;1.00
21522;DHT22;10922;45.572;10.002;2023-01-20T00:13:53;2.80;1.00
21522;DHT22;10922;45.572;10.002;2023-01-20T00:16:20;2.50;1.00
21522;DHT22;10922;45.572;10.002;2023-01-20T00:18:46;2.60;1.00
21522;DHT22;10922;45.572;10.002;2023-01-20T00:21:12;2.70;1.00
21522;DHT22;10922;45.572;10.002;2023-01-20T00:23:39;2.70;1.00
21522;DHT22;10922;45.572;10.002;2023-01-20T00:26:11;2.40;1.00
21522;DHT22;10922;45.572;10.002;2023-01-20T00:28:37;2.40;1.00
21522;DHT22;10922;45.572;10.002;2023-01-20T00:31:17;2.40;1.00
21522;DHT22;10922;45.572;10.002;2023-01-20T00:33:43;2.50;1.00
21522;DHT22;10922;45.572;10.002;2023-01-20T00:36:10;2.70;1.00
21522;DHT22;10922;45.572;10.002;2023-01-20T00:38:37;2.50;1.00
21522;DHT22;10922;45.572;10.002;2023-01-20T00:41:03;2.60;1.00
21522;DHT22;10922;45.572;10.002;2023-01-20T00:43:28;2.40;1.00
21522;DHT22;10922;45.572;10.002;2023-01-20T00:45:54;2.50;1.00
21522;DHT22;10922;45.572;10.002;2023-01-20T00:48:20;2.70;1.00
21522;DHT22;10922;45.572;10.002;2023-01-20T00:50:45;2.70;1.00
21522;DHT22;10922;45.572;10.002;2023-01-20T00:53:11;2.60;1.00
21522;DHT22;10922;45.572;10.002;2023-01-20T00:55:37;2.80;1.00
21522;DHT22;10922;45.572;10.002;2023-01-20T00:58:02;2.80;1.00
21522;DHT22;10922;45.572;10.002;2023-01-20T01:00:28;2.90;1.00
21522;DHT22;10922;45.572;10.002;2023-01-20T01:02:53;3.00;1.00
21522;DHT22;10922;45.572;10.002;2023-01-20T01:05:21;3.00;1.00
21522;DHT22;10922;45.572;10.002;2023-01-20T01:07:46;3.10;1.00
21522;DHT22;10922;45.572;10.002;2023-01-20T01:10:12;3.10;1.00
21522;DHT22;10922;45.572;10.002;2023-01-20T01:12:38;3.10;1.00
21522;DHT22;10922;45.572;10.002;2023-01-20T01:15:04;3.00;1.00
21522;DHT22;10922;45.572;10.002;2023-01-20T01:17:29;3.00;1.00
21522;DHT22;10922;45.572;10.002;2023-01-20T01:19:55;3.10;1.00
21522;DHT22;10922;45.572;10.002;2023-01-20T01:22:21;3.00;1.00
21522;DHT22;10922;45.572;10.002;2023-01-20T01:24:47;3.00;1.00
21522;DHT22;10922;45.572;10.002;2023-01-20T01:27:13;2.80;1.00
21522;DHT22;10922;45.572;10.002;2023-01-20T01:29:38;2.80;1.00
21522;DHT22;10922;45.572;10.002;2023-01-20T01:32:05;2.80;1.00
21522;DHT22;10922;45.572;10.002;2023-01-20T01:34:31;2.80;1.00
21522;DHT22;10922;45.572;10.002;2023-01-20T01:36:57;2.70;1.00
21522;DHT22;10922;45.572;10.002;2023-01-20T01:39:23;2.70;1.00
21522;DHT22;10922;45.572;10.002;2023-01-20T01:41:49;2.80;1.00
21522;DHT22;10922;45.572;10.002;2023-01-20T01:44:14;2.80;1.00
21522;DHT22;10922;45.572;10.002;2023-01-20T01:46:41;2.70;1.00
21522;DHT22;10922;45.572;10.002;2023-01-20T01:49:28;2.70;1.00
21522;DHT22;10922;45.572;10.002;2023-01-20T01:52:01;2.60;1.00
21522;DHT22;10922;45.572;10.002;2023-01-20T01:54:31;2.60;1.00
21522;DHT22;10922;45.572;10.002;2023-01-20T01:56:57;2.50;1.00
21522;DHT22;10922;45.572;10.002;2023-01-20T01:59:23;2.50;1.00
21522;DHT22;10922;45.572;10.002;2023-01-20T02:01:51;2.50;1.00
21522;DHT22;10922;45.572;10.002;2023-01-20T02:04:19;2.50;1.00
21522;DHT22;10922;45.572;10.002;2023-01-20T02:06:53;2.50;1.00
21522;DHT22;10922;45.572;10.002;2023-01-20T02:09:20;2.50;1.00
21522;DHT22;10922;45.572;10.002;2023-01-20T02:11:50;2.50;1.00
21522;DHT22;10922;45.572;10.002;2023-01-20T02:14:22;2.50;1.00
21522;DHT22;10922;45.572;10.002;2023-01-20T02:28:23;2.30;1.00
21522;DHT22;10922;45.572;10.002;2023-01-20T02:34:19;2.20;1.00
21522;DHT22;10922;45.572;10.002;2023-01-20T02:36:53;2.10;1.00
21522;DHT22;10922;45.572;10.002;2023-01-20T02:42:47;1.80;1.00
21522;DHT22;10922;45.572;10.002;2023-01-20T02:45:23;1.60;1.00
21522;DHT22;10922;45.572;10.002;2023-01-20T02:52:54;1.60;1.00
21522;DHT22;10922;45.572;10.002;2023-01-20T02:58:04;1.80;1.00
21522;DHT22;10922;45.572;10.002;2023-01-20T03:00:42;1.90;1.00
21522;DHT22;10922;45.572;10.002;2023-01-20T03:03:11;1.70;1.00
21522;DHT22;10922;45.572;10.002;2023-01-20T03:05:44;2.00;1.00
21522;DHT22;10922;45.572;10.002;2023-01-20T03:08:13;2.00;1.00
21522;DHT22;10922;45.572;10.002;2023-01-20T03:10:41;2.10;1.00
21522;DHT22;10922;45.572;10.002;2023-01-20T03:13:14;2.00;1.00
21522;DHT22;10922;45.572;10.002;2023-01-20T03:15:59;2.00;1.00
21522;DHT22;10922;45.572;10.002;2023-01-20T03:18:27;2.10;1.00
21522;DHT22;10922;45.572;10.002;2023-01-20T03:20:54;2.10;1.00
21522;DHT22;10922;45.572;10.002;2023-01-20T03:23:20;2.20;1.00
21522;DHT22;10922;45.572;10.002;2023-01-20T03:25:47;2.20;1.00
21522;DHT22;10922;45.572;10.002;2023-01-20T03:28:14;2.10;1.00
21522;DHT22;10922;45.572;10.002;2023-01-20T03:30:40;2.20;1.00
21522;DHT22;10922;45.572;10.002;2023-01-20T03:33:06;2.10;1.00
21522;DHT22;10922;45.572;10.002;2023-01-20T03:35:32;2.00;1.00
21522;DHT22;10922;45.572;10.002;2023-01-20T03:37:58;2.00;1.00
21522;DHT22;10922;45.572;10.002;2023-01-20T03:40:28;1.90;1.00
21522;DHT22;10922;45.572;10.002;2023-01-20T03:43:00;1.90;1.00
21522;DHT22;10922;45.572;10.002;2023-01-20T03:45:52;1.90;1.00
21522;DHT22;10922;45.572;10.002;2023-01-20T03:50:54;1.90;1.00
21522;DHT22;10922;45.572;10.002;2023-01-20T03:56:03;1.80;1.00
21522;DHT22;10922;45.572;10.002;2023-01-20T03:58:36;1.90;1.00
21522;DHT22;10922;45.572;10.002;2023-01-20T04:01:06;1.90;1.00
21522;DHT22;10922;45.572;10.002;2023-01-20T04:03:37;1.80;1.00
21522;DHT22;10922;45.572;10.002;2023-01-20T04:06:05;1.80;1.00
21522;DHT22;10922;45.572;10.002;2023-01-20T04:08:39;1.90;1.00
21522;DHT22;10922;45.572;10.002;2023-01-20T04:11:07;1.90;1.00
21522;DHT22;10922;45.572;10.002;2023-01-20T04:13:33;1.90;1.00
21522;DHT22;10922;45.572;10.002;2023-01-20T04:16:01;1.80;1.00
21522;DHT22;10922;45.572;10.002;2023-01-20T04:18:27;1.80;1.00
21522;DHT22;10922;45.572;10.002;2023-01-20T04:20:57;1.80;1.00
21522;DHT22;10922;45.572;10.002;2023-01-20T04:23:32;1.70;1.00
21522;DHT22;10922;45.572;10.002;2023-01-20T04:25:58;1.70;1.00
21522;DHT22;10922;45.572;10.002;2023-01-20T04:28:24;1.60;1.00
21522;DHT22;10922;45.572;10.002;2023-01-20T04:30:50;1.60;1.00
21522;DHT22;10922;45.572;10.002;2023-01-20T04:33:16;1.60;1.00
21522;DHT22;10922;45.572;10.002;2023-01-20T04:35:42;1.60;1.00
21522;DHT22;10922;45.572;10.002;2023-01-20T04:38:08;1.60;1.00
21522;DHT22;10922;45.572;10.002;2023-01-20T04:40:33;1.70;1.00
21522;DHT22;10922;45.572;10.002;2023-01-20T04:42:59;1.60;1.00
21522;DHT22;10922;45.572;10.002;2023-01-20T04:45:25;1.70;1.00
21522;DHT22;10922;45.572;10.002;2023-01-20T04:47:50;1.70;1.00
21522;DHT22;10922;45.572;10.002;2023-01-20T04:50:16;1.70;1.00
21522;DHT22;10922;45.572;10.002;2023-01-20T04:52:42;1.70;1.00
21522;DHT22;10922;45.572;10.002;2023-01-20T04:55:09;1.60;1.00
21522;DHT22;10922;45.572;10.002;2023-01-20T04:57:35;1.60;1.00
21522;DHT22;10922;45.572;10.002;2023-01-20T05:00:00;1.40;1.00
21522;DHT22;10922;45.572;10.002;2023-01-20T05:02:26;1.50;1.00
21522;DHT22;10922;45.572;10.002;2023-01-20T05:04:52;1.50;1.00
21522;DHT22;10922;45.572;10.002;2023-01-20T05:07:17;1.50;1.00
21522;DHT22;10922;45.572;10.002;2023-01-20T05:09:43;1.60;1.00
21522;DHT22;10922;45.572;10.002;2023-01-20T05:12:09;1.50;1.00
21522;DHT22;10922;45.572;10.002;2023-01-20T05:14:34;1.50;1.00
21522;DHT22;10922;45.572;10.002;2023-01-20T05:17:00;1.40;1.00
21522;DHT22;10922;45.572;10.002;2023-01-20T05:19:26;1.30;1.00
21522;DHT22;10922;45.572;10.002;2023-01-20T05:21:51;1.30;1.00
21522;DHT22;10922;45.572;10.002;2023-01-20T05:24:17;1.30;1.00
21522;DHT22;10922;45.572;10.002;2023-01-20T05:26:42;1.40;1.00
21522;DHT22;10922;45.572;10.002;2023-01-20T05:29:08;1.30;1.00
21522;DHT22;10922;45.572;10.002;2023-01-20T05:31:34;1.30;1.00
21522;DHT22;10922;45.572;10.002;2023-01-20T05:34:01;1.30;1.00
21522;DHT22;10922;45.572;10.002;2023-01-20T05:36:27;1.30;1.00
21522;DHT22;10922;45.572;10.002;2023-01-20T05:38:53;1.20;1.00
21522;DHT22;10922;45.572;10.002;2023-01-20T05:41:19;1.20;1.00
21522;DHT22;10922;45.572;10.002;2023-01-20T05:43:45;1.20;1.00
21522;DHT22;10922;45.572;10.002;2023-01-20T05:46:11;1.30;1.00
21522;DHT22;10922;45.572;10.002;2023-01-20T05:48:36;1.30;1.00
21522;DHT22;10922;45.572;10.002;2023-01-20T05:51:02;1.30;1.00
21522;DHT22;10922;45.572;10.002;2023-01-20T05:53:28;1.40;1.00
21522;DHT22;10922;45.572;10.002;2023-01-20T05:56:01;1.30;1.00
21522;DHT22;10922;45.572;10.002;2023-01-20T05:58:27;1.10;1.00
21522;DHT22;10922;45.572;10.002;2023-01-20T06:00:53;1.10;1.00
21522;DHT22;10922;45.572;10.002;2023-01-20T06:03:18;1.10;1.00
21522;DHT22;10922;45.572;10.002;2023-01-20T06:05:44;1.20;1.00
21522;DHT22;10922;45.572;10.002;2023-01-20T06:08:13;1.10;1.00
21522;DHT22;10922;45.572;10.002;2023-01-20T06:10:39;1.10;1.00
21522;DHT22;10922;45.572;10.002;2023-01-20T06:13:05;1.10;1.00
21522;DHT22;10922;45.572;10.002;2023-01-20T06:15:30;1.10;1.00
21522;DHT22;10922;45.572;10.002;2023-01-20T06:17:56;1.00;1.00
21522;DHT22;10922;45.572;10.002;2023-01-20T06:20:21;1.00;1.00
21522;DHT22;10922;45.572;10.002;2023-01-20T06:22:47;1.00;1.00
21522;DHT22;10922;45.572;10.002;2023-01-20T06:25:13;1.10;1.00
21522;DHT22;10922;45.572;10.002;2023-01-20T06:27:39;1.10;1.00
21522;DHT22;10922;45.572;10.002;2023-01-20T06:30:05;1.10;1.00
21522;DHT22;10922;45.572;10.002;2023-01-20T06:32:31;1.00;1.00
21522;DHT22;10922;45.572;10.002;2023-01-20T06:34:57;0.90;1.00
21522;DHT22;10922;45.572;10.002;2023-01-20T06:37:22;1.00;1.00
21522;DHT22;10922;45.572;10.002;2023-01-20T06:39:48;1.00;1.00
21522;DHT22;10922;45.572;10.002;2023-01-20T06:42:14;1.00;1.00
21522;DHT22;10922;45.572;10.002;2023-01-20T06:44:39;1.00;1.00
21522;DHT22;10922;45.572;10.002;2023-01-20T06:47:05;1.00;1.00
21522;DHT22;10922;45.572;10.002;2023-01-20T06:49:30;1.10;1.00
21522;DHT22;10922;45.572;10.002;2023-01-20T06:51:58;1.10;1.00
21522;DHT22;10922;45.572;10.002;2023-01-20T06:54:24;1.10;1.00
21522;DHT22;10922;45.572;10.002;2023-01-20T06:56:50;1.10;1.00
21522;DHT22;10922;45.572;10.002;2023-01-20T06:59:15;1.10;1.00
21522;DHT22;10922;45.572;10.002;2023-01-20T07:01:41;1.10;1.00
21522;DHT22;10922;45.572;10.002;2023-01-20T07:04:09;1.10;1.00
21522;DHT22;10922;45.572;10.002;2023-01-20T07:06:38;1.10;1.00
21522;DHT22;10922;45.572;10.002;2023-01-20T07:09:07;1.20;1.00
21522;DHT22;10922;45.572;10.002;2023-01-20T07:11:33;1.30;1.00
21522;DHT22;10922;45.572;10.002;2023-01-20T07:14:02;1.30;1.00
21522;DHT22;10922;45.572;10.002;2023-01-20T07:16:28;1.20;1.00
21522;DHT22;10922;45.572;10.002;2023-01-20T07:18:54;1.20;1.00
21522;DHT22;10922;45.572;10.002;2023-01-20T07:21:21;1.20;1.00
21522;DHT22;10922;45.572;10.002;2023-01-20T07:23:47;1.20;1.00
21522;DHT22;10922;45.572;10.002;2023-01-20T07:26:22;1.20;1.00
21522;DHT22;10922;45.572;10.002;2023-01-20T07:28:51;1.20;1.00
21522;DHT22;10922;45.572;10.002;2023-01-20T07:31:21;1.40;1.00
21522;DHT22;10922;45.572;10.002;2023-01-20T07:33:48;1.50;1.00
21522;DHT22;10922;45.572;10.002;2023-01-20T07:36:15;1.50;1.00
21522;DHT22;10922;45.572;10.002;2023-01-20T07:38:41;1.60;1.00
21522;DHT22;10922;45.572;10.002;2023-01-20T07:41:09;1.70;1.00
21522;DHT22;10922;45.572;10.002;2023-01-20T07:43:36;1.80;1.00
21522;DHT22;10922;45.572;10.002;2023-01-20T07:46:03;2.00;1.00
21522;DHT22;10922;45.572;10.002;2023-01-20T07:48:30;2.10;1.00
21522;DHT22;10922;45.572;10.002;2023-01-20T07:51:01;2.10;1.00
21522;DHT22;10922;45.572;10.002;2023-01-20T07:53:28;2.20;1.00
21522;DHT22;10922;45.572;10.002;2023-01-20T07:55:54;2.30;1.00
21522;DHT22;10922;45.572;10.002;2023-01-20T07:58:19;2.40;1.00
21522;DHT22;10922;45.572;10.002;2023-01-20T08:00:45;2.60;1.00
21522;DHT22;10922;45.572;10.002;2023-01-20T08:03:14;2.50;1.00
21522;DHT22;10922;45.572;10.002;2023-01-20T08:05:41;2.50;1.00
21522;DHT22;10922;45.572;10.002;2023-01-20T08:08:07;2.60;1.00
21522;DHT22;10922;45.572;10.002;2023-01-20T08:10:32;2.70;1.00
21522;DHT22;10922;45.572;10.002;2023-01-20T08:12:58;2.80;1.00
21522;DHT22;10922;45.572;10.002;2023-01-20T08:15:24;3.00;1.00
21522;DHT22;10922;45.572;10.002;2023-01-20T08:17:53;3.00;1.00
21522;DHT22;10922;45.572;10.002;2023-01-20T08:20:19;3.10;1.00
21522;DHT22;10922;45.572;10.002;2023-01-20T08:22:45;3.20;1.00
21522;DHT22;10922;45.572;10.002;2023-01-20T08:25:10;3.20;1.00
21522;DHT22;10922;45.572;10.002;2023-01-20T08:27:36;3.20;1.00
21522;DHT22;10922;45.572;10.002;2023-01-20T08:30:02;3.40;1.00
21522;DHT22;10922;45.572;10.002;2023-01-20T08:32:28;3.40;1.00
21522;DHT22;10922;45.572;10.002;2023-01-20T08:34:54;3.40;1.00
21522;DHT22;10922;45.572;10.002;2023-01-20T08:37:20;3.40;1.00
21522;DHT22;10922;45.572;10.002;2023-01-20T08:39:46;3.60;1.00
21522;DHT22;10922;45.572;10.002;2023-01-20T08:42:11;3.70;1.00
21522;DHT22;10922;45.572;10.002;2023-01-20T08:44:37;3.80;1.00
21522;DHT22;10922;45.572;10.002;2023-01-20T08:47:02;3.90;1.00
21522;DHT22;10922;45.572;10.002;2023-01-20T08:49:28;4.00;1.00
21522;DHT22;10922;45.572;10.002;2023-01-20T08:51:54;3.80;1.00
21522;DHT22;10922;45.572;10.002;2023-01-20T08:54:21;3.80;1.00
21522;DHT22;10922;45.572;10.002;2023-01-20T08:56:51;3.90;1.00
21522;DHT22;10922;45.572;10.002;2023-01-20T08:59:18;4.10;1.00
21522;DHT22;10922;45.572;10.002;2023-01-20T09:01:44;4.20;1.00
21522;DHT22;10922;45.572;10.002;2023-01-20T09:04:10;4.20;1.00
21522;DHT22;10922;45.572;10.002;2023-01-20T09:06:42;4.30;1.00
21522;DHT22;10922;45.572;10.002;2023-01-20T09:09:09;4.30;1.00
21522;DHT22;10922;45.572;10.002;2023-01-20T09:11:35;4.30;1.00
21522;DHT22;10922;45.572;10.002;2023-01-20T09:14:00;4.20;1.00
21522;DHT22;10922;45.572;10.002;2023-01-20T09:16:26;4.40;1.00
21522;DHT22;10922;45.572;10.002;2023-01-20T09:18:52;4.50;1.00
21522;DHT22;10922;45.572;10.002;2023-01-20T09:21:17;4.70;1.00
21522;DHT22;10922;45.572;10.002;2023-01-20T09:23:43;4.50;1.00
21522;DHT22;10922;45.572;10.002;2023-01-20T09:26:12;4.60;1.00
21522;DHT22;10922;45.572;10.002;2023-01-20T09:28:38;4.80;1.00
21522;DHT22;10922;45.572;10.002;2023-01-20T09:31:06;4.80;1.00
21522;DHT22;10922;45.572;10.002;2023-01-20T09:33:33;4.70;1.00
21522;DHT22;10922;45.572;10.002;2023-01-20T09:36:01;4.90;1.00
21522;DHT22;10922;45.572;10.002;2023-01-20T09:38:27;5.00;1.00
21522;DHT22;10922;45.572;10.002;2023-01-20T09:49:30;5.40;1.00
21522;DHT22;10922;45.572;10.002;2023-01-20T09:52:26;5.30;1.00
21522;DHT22;10922;45.572;10.002;2023-01-20T10:09:43;5.50;1.00
21522;DHT22;10922;45.572;10.002;2023-01-20T10:12:49;5.40;1.00
21522;DHT22;10922;45.572;10.002;2023-01-20T10:15:17;5.10;1.00
21522;DHT22;10922;45.572;10.002;2023-01-20T10:17:56;5.20;1.00
21522;DHT22;10922;45.572;10.002;2023-01-20T10:20:39;5.30;1.00
21522;DHT22;10922;45.572;10.002;2023-01-20T10:26:06;5.30;1.00
21522;DHT22;10922;45.572;10.002;2023-01-20T10:28:40;5.50;1.00
21522;DHT22;10922;45.572;10.002;2023-01-20T10:31:07;5.40;1.00
21522;DHT22;10922;45.572;10.002;2023-01-20T10:33:37;5.40;1.00
21522;DHT22;10922;45.572;10.002;2023-01-20T10:36:09;5.70;1.00
21522;DHT22;10922;45.572;10.002;2023-01-20T10:41:11;5.70;1.00
21522;DHT22;10922;45.572;10.002;2023-01-20T10:43:40;5.70;1.00
21522;DHT22;10922;45.572;10.002;2023-01-20T10:54:40;6.00;1.00
21522;DHT22;10922;45.572;10.002;2023-01-20T10:57:12;5.90;1.00
21522;DHT22;10922;45.572;10.002;2023-01-20T10:59:51;6.00;1.00
21522;DHT22;10922;45.572;10.002;2023-01-20T11:02:28;5.90;1.00
21522;DHT22;10922;45.572;10.002;2023-01-20T11:05:09;6.10;1.00
21522;DHT22;10922;45.572;10.002;2023-01-20T11:07:42;6.30;1.00
21522;DHT22;10922;45.572;10.002;2023-01-20T11:10:17;6.10;1.00
21522;DHT22;10922;45.572;10.002;2023-01-20T11:12:46;6.30;1.00
21522;DHT22;10922;45.572;10.002;2023-01-20T11:15:22;6.20;1.00
21522;DHT22;10922;45.572;10.002;2023-01-20T11:20:44;6.20;1.00
21522;DHT22;10922;45.572;10.002;2023-01-20T11:25:59;6.40;1.00
21522;DHT22;10922;45.572;10.002;2023-01-20T11:28:25;6.40;1.00
21522;DHT22;10922;45.572;10.002;2023-01-20T11:30:53;6.20;1.00
21522;DHT22;10922;45.572;10.002;2023-01-20T11:33:21;6.30;1.00
21522;DHT22;10922;45.572;10.002;2023-01-20T11:36:13;6.40;1.00
21522;DHT22;10922;45.572;10.002;2023-01-20T11:38:46;6.50;1.00
21522;DHT22;10922;45.572;10.002;2023-01-20T11:41:26;6.40;1.00
21522;DHT22;10922;45.572;10.002;2023-01-20T11:43:55;6.70;1.00
21522;DHT22;10922;45.572;10.002;2023-01-20T11:46:29;6.80;1.00
21522;DHT22;10922;45.572;10.002;2023-01-20T11:49:18;6.70;1.00
21522;DHT22;10922;45.572;10.002;2023-01-20T11:51:49;6.70;1.00
21522;DHT22;10922;45.572;10.002;2023-01-20T11:54:24;6.30;1.00
21522;DHT22;10922;45.572;10.002;2023-01-20T11:56:54;6.20;1.00
21522;DHT22;10922;45.572;10.002;2023-01-20T11:59:30;6.40;1.00
21522;DHT22;10922;45.572;10.002;2023-01-20T12:08:04;6.10;1.00
21522;DHT22;10922;45.572;10.002;2023-01-20T12:10:31;6.40;1.00
21522;DHT22;10922;45.572;10.002;2023-01-20T12:13:19;6.10;1.00
21522;DHT22;10922;45.572;10.002;2023-01-20T12:15:50;6.30;1.00
21522;DHT22;10922;45.572;10.002;2023-01-20T12:18:37;6.10;1.00
21522;DHT22;10922;45.572;10.002;2023-01-20T12:21:05;6.30;1.00
21522;DHT22;10922;45.572;10.002;2023-01-20T12:23:38;6.70;1.00
21522;DHT22;10922;45.572;10.002;2023-01-20T12:26:12;8.00;1.00
21522;DHT22;10922;45.572;10.002;2023-01-20T12:31:16;10.40;1.00
21522;DHT22;10922;45.572;10.002;2023-01-20T12:34:11;10.40;1.00
21522;DHT22;10922;45.572;10.002;2023-01-20T12:36:46;11.00;1.00
21522;DHT22;10922;45.572;10.002;2023-01-20T12:43:07;11.90;1.00
21522;DHT22;10922;45.572;10.002;2023-01-20T12:45:52;12.70;1.00
21522;DHT22;10922;45.572;10.002;2023-01-20T12:51:43;13.00;1.00
21522;DHT22;10922;45.572;10.002;2023-01-20T13:05:28;14.80;1.00
21522;DHT22;10922;45.572;10.002;2023-01-20T13:16:18;14.20;1.00
21522;DHT22;10922;45.572;10.002;2023-01-20T13:21:17;15.40;1.00
21522;DHT22;10922;45.572;10.002;2023-01-20T13:23:47;15.90;1.00
21522;DHT22;10922;45.572;10.002;2023-01-20T13:26:13;15.20;1.00
21522;DHT22;10922;45.572;10.002;2023-01-20T13:28:53;15.60;1.00
21522;DHT22;10922;45.572;10.002;2023-01-20T13:58:21;14.60;1.00
21522;DHT22;10922;45.572;10.002;2023-01-20T14:00:48;16.40;1.00
21522;DHT22;10922;45.572;10.002;2023-01-20T14:08:45;16.50;1.00
21522;DHT22;10922;45.572;10.002;2023-01-20T14:11:15;15.10;1.00
21522;DHT22;10922;45.572;10.002;2023-01-20T14:14:15;14.80;1.00
21522;DHT22;10922;45.572;10.002;2023-01-20T14:16:40;16.40;1.00
21522;DHT22;10922;45.572;10.002;2023-01-20T14:19:20;16.20;1.00
21522;DHT22;10922;45.572;10.002;2023-01-20T14:21:52;13.50;1.00
21522;DHT22;10922;45.572;10.002;2023-01-20T14:27:10;11.50;1.00
21522;DHT22;10922;45.572;10.002;2023-01-20T14:29:39;12.50;1.00
21522;DHT22;10922;45.572;10.002;2023-01-20T14:32:28;13.00;1.00
21522;DHT22;10922;45.572;10.002;2023-01-20T14:34:56;10.90;1.00
21522;DHT22;10922;45.572;10.002;2023-01-20T14:39:51;12.60;1.00
21522;DHT22;10922;45.572;10.002;2023-01-20T14:42:21;13.80;1.00
21522;DHT22;10922;45.572;10.002;2023-01-20T14:44:48;15.60;1.00
21522;DHT22;10922;45.572;10.002;2023-01-20T14:47:14;15.90;1.00
21522;DHT22;10922;45.572;10.002;2023-01-20T14:49:41;17.20;1.00
21522;DHT22;10922;45.572;10.002;2023-01-20T14:52:28;15.90;1.00
21522;DHT22;10922;45.572;10.002;2023-01-20T14:54:55;15.10;1.00
21522;DHT22;10922;45.572;10.002;2023-01-20T14:57:44;15.70;1.00
21522;DHT22;10922;45.572;10.002;2023-01-20T15:00:19;15.50;1.00
21522;DHT22;10922;45.572;10.002;2023-01-20T15:05:28;16.90;1.00
21522;DHT22;10922;45.572;10.002;2023-01-20T15:08:15;17.70;1.00
21522;DHT22;10922;45.572;10.002;2023-01-20T15:10:43;17.20;1.00
21522;DHT22;10922;45.572;10.002;2023-01-20T15:13:22;16.30;1.00
21522;DHT22;10922;45.572;10.002;2023-01-20T15:15:49;15.10;1.00
21522;DHT22;10922;45.572;10.002;2023-01-20T15:18:20;14.80;1.00
21522;DHT22;10922;45.572;10.002;2023-01-20T15:20:51;15.40;1.00
21522;DHT22;10922;45.572;10.002;2023-01-20T15:23:31;14.30;1.00
21522;DHT22;10922;45.572;10.002;2023-01-20T15:26:08;14.50;1.00
21522;DHT22;10922;45.572;10.002;2023-01-20T15:28:40;13.50;1.00
21522;DHT22;10922;45.572;10.002;2023-01-20T15:31:11;12.70;1.00
21522;DHT22;10922;45.572;10.002;2023-01-20T15:33:37;12.30;1.00
21522;DHT22;10922;45.572;10.002;2023-01-20T15:36:20;12.10;1.00
21522;DHT22;10922;45.572;10.002;2023-01-20T15:38:48;11.70;1.00
21522;DHT22;10922;45.572;10.002;2023-01-20T15:41:14;10.60;1.00
21522;DHT22;10922;45.572;10.002;2023-01-20T15:43:40;10.50;1.00
21522;DHT22;10922;45.572;10.002;2023-01-20T15:46:11;9.80;1.00
21522;DHT22;10922;45.572;10.002;2023-01-20T15:48:37;9.30;1.00
21522;DHT22;10922;45.572;10.002;2023-01-20T15:51:02;9.40;1.00
21522;DHT22;10922;45.572;10.002;2023-01-20T15:53:29;9.00;1.00
21522;DHT22;10922;45.572;10.002;2023-01-20T15:55:55;8.00;1.00
21522;DHT22;10922;45.572;10.002;2023-01-20T15:58:29;7.60;1.00
21522;DHT22;10922;45.572;10.002;2023-01-20T16:00:56;7.00;1.00
21522;DHT22;10922;45.572;10.002;2023-01-20T16:03:23;6.60;1.00
21522;DHT22;10922;45.572;10.002;2023-01-20T16:05:50;6.40;1.00
21522;DHT22;10922;45.572;10.002;2023-01-20T16:08:24;6.00;1.00
21522;DHT22;10922;45.572;10.002;2023-01-20T16:10:53;5.90;1.00
21522;DHT22;10922;45.572;10.002;2023-01-20T16:13:19;5.70;1.00
21522;DHT22;10922;45.572;10.002;2023-01-20T16:15:45;5.60;1.00
21522;DHT22;10922;45.572;10.002;2023-01-20T16:18:16;5.60;1.00
21522;DHT22;10922;45.572;10.002;2023-01-20T16:20:46;5.30;1.00
21522;DHT22;10922;45.572;10.002;2023-01-20T16:23:13;5.20;1.00
21522;DHT22;10922;45.572;10.002;2023-01-20T16:25:39;5.00;1.00
21522;DHT22;10922;45.572;10.002;2023-01-20T16:28:15;5.00;1.00
21522;DHT22;10922;45.572;10.002;2023-01-20T16:30:43;5.00;1.00
21522;DHT22;10922;45.572;10.002;2023-01-20T16:33:20;4.90;1.00
21522;DHT22;10922;45.572;10.002;2023-01-20T16:35:46;4.90;1.00
21522;DHT22;10922;45.572;10.002;2023-01-20T16:38:14;4.90;1.00
21522;DHT22;10922;45.572;10.002;2023-01-20T16:40:49;4.70;1.00
21522;DHT22;10922;45.572;10.002;2023-01-20T16:43:15;4.70;1.00
21522;DHT22;10922;45.572;10.002;2023-01-20T16:45:42;4.70;1.00
21522;DHT22;10922;45.572;10.002;2023-01-20T16:48:07;4.70;1.00
21522;DHT22;10922;45.572;10.002;2023-01-20T16:50:34;4.60;1.00
21522;DHT22;10922;45.572;10.002;2023-01-20T16:53:00;4.50;1.00
21522;DHT22;10922;45.572;10.002;2023-01-20T16:55:26;4.50;1.00
21522;DHT22;10922;45.572;10.002;2023-01-20T16:57:51;4.40;1.00
21522;DHT22;10922;45.572;10.002;2023-01-20T17:00:18;4.30;1.00
21522;DHT22;10922;45.572;10.002;2023-01-20T17:02:48;4.10;1.00
21522;DHT22;10922;45.572;10.002;2023-01-20T17:05:16;4.10;1.00
21522;DHT22;10922;45.572;10.002;2023-01-20T17:07:47;4.10;1.00
21522;DHT22;10922;45.572;10.002;2023-01-20T17:10:14;4.00;1.00
21522;DHT22;10922;45.572;10.002;2023-01-20T17:12:40;3.90;1.00
21522;DHT22;10922;45.572;10.002;2023-01-20T17:15:05;3.90;1.00
21522;DHT22;10922;45.572;10.002;2023-01-20T17:17:31;3.50;1.00
21522;DHT22;10922;45.572;10.002;2023-01-20T17:19:58;3.30;1.00
21522;DHT22;10922;45.572;10.002;2023-01-20T17:22:24;3.40;1.00
21522;DHT22;10922;45.572;10.002;2023-01-20T17:24:49;3.30;1.00
21522;DHT22;10922;45.572;10.002;2023-01-20T17:27:15;3.30;1.00
21522;DHT22;10922;45.572;10.002;2023-01-20T17:29:41;3.30;1.00
21522;DHT22;10922;45.572;10.002;2023-01-20T17:32:06;3.40;1.00
21522;DHT22;10922;45.572;10.002;2023-01-20T17:34:32;3.40;1.00
21522;DHT22;10922;45.572;10.002;2023-01-20T17:36:58;3.40;1.00
21522;DHT22;10922;45.572;10.002;2023-01-20T17:39:23;3.30;1.00
21522;DHT22;10922;45.572;10.002;2023-01-20T17:41:49;3.20;1.00
21522;DHT22;10922;45.572;10.002;2023-01-20T17:44:15;3.30;1.00
21522;DHT22;10922;45.572;10.002;2023-01-20T17:46:40;3.30;1.00
21522;DHT22;10922;45.572;10.002;2023-01-20T17:49:06;3.30;1.00
21522;DHT22;10922;45.572;10.002;2023-01-20T17:51:32;3.20;1.00
21522;DHT22;10922;45.572;10.002;2023-01-20T17:53:59;3.20;1.00
21522;DHT22;10922;45.572;10.002;2023-01-20T17:56:25;3.20;1.00
21522;DHT22;10922;45.572;10.002;2023-01-20T17:58:51;3.30;1.00
21522;DHT22;10922;45.572;10.002;2023-01-20T18:03:45;3.30;1.00
21522;DHT22;10922;45.572;10.002;2023-01-20T18:06:13;3.30;1.00
21522;DHT22;10922;45.572;10.002;2023-01-20T18:08:39;3.30;1.00
21522;DHT22;10922;45.572;10.002;2023-01-20T18:11:08;3.30;1.00
21522;DHT22;10922;45.572;10.002;2023-01-20T18:13:34;3.30;1.00
21522;DHT22;10922;45.572;10.002;2023-01-20T18:16:08;3.20;1.00
21522;DHT22;10922;45.572;10.002;2023-01-20T18:18:38;3.30;1.00
21522;DHT22;10922;45.572;10.002;2023-01-20T18:21:23;3.30;1.00
21522;DHT22;10922;45.572;10.002;2023-01-20T18:23:50;3.30;1.00
21522;DHT22;10922;45.572;10.002;2023-01-20T18:26:18;3.30;1.00
21522;DHT22;10922;45.572;10.002;2023-01-20T18:28:46;3.40;1.00
21522;DHT22;10922;45.572;10.002;2023-01-20T18:31:16;3.40;1.00